sensor_id;sensor_type;location;lat;lon;timestamp;P1;durP1;ratioP1;P2;durP2;ratioP2
77004;SDS011;67261;53.132;18.006;2023-07-20T00:01:00;6.70;;;4.40;;
77004;SDS011;67261;53.132;18.006;2023-07-20T00:03:32;6.70;;;4.40;;
77004;SDS011;67261;53.132;18.006;2023-07-20T00:06:00;6.20;;;4.00;;
77004;SDS011;67261;53.132;18.006;2023-07-20T00:08:28;5.60;;;4.10;;
77004;SDS011;67261;53.132;18.006;2023-07-20T00:13:23;6.60;;;3.80;;
77004;SDS011;67261;53.132;18.006;2023-07-20T00:15:51;7.60;;;4.70;;
77004;SDS011;67261;53.132;18.006;2023-07-20T00:18:20;7.60;;;4.90;;
77004;SDS011;67261;53.132;18.006;2023-07-20T00:20:49;6.80;;;4.10;;
77004;SDS011;67261;53.132;18.006;2023-07-20T00:23:17;5.50;;;4.10;;
77004;SDS011;67261;53.132;18.006;2023-07-20T00:25:49;7.50;;;4.40;;
77004;SDS011;67261;53.132;18.006;2023-07-20T00:28:17;7.50;;;4.30;;
77004;SDS011;67261;53.132;18.006;2023-07-20T00:30:44;6.70;;;4.20;;
77004;SDS011;67261;53.132;18.006;2023-07-20T00:33:12;7.10;;;4.40;;
77004;SDS011;67261;53.132;18.006;2023-07-20T00:35:40;7.10;;;4.50;;
77004;SDS011;67261;53.132;18.006;2023-07-20T00:38:08;8.60;;;4.60;;
77004;SDS011;67261;53.132;18.006;2023-07-20T00:40:36;6.40;;;4.20;;
77004;SDS011;67261;53.132;18.006;2023-07-20T00:43:10;7.60;;;4.50;;
77004;SDS011;67261;53.132;18.006;2023-07-20T00:45:38;7.30;;;4.50;;
77004;SDS011;67261;53.132;18.006;2023-07-20T00:48:07;9.30;;;5.10;;
77004;SDS011;67261;53.132;18.006;2023-07-20T00:50:36;7.90;;;5.10;;
77004;SDS011;67261;53.132;18.006;2023-07-20T00:53:04;8.60;;;5.50;;
77004;SDS011;67261;53.132;18.006;2023-07-20T00:55:34;8.30;;;5.60;;
77004;SDS011;67261;53.132;18.006;2023-07-20T00:58:02;7.80;;;5.80;;
77004;SDS011;67261;53.132;18.006;2023-07-20T01:00:32;8.80;;;4.70;;
77004;SDS011;67261;53.132;18.006;2023-07-20T01:03:00;6.50;;;4.30;;
77004;SDS011;67261;53.132;18.006;2023-07-20T01:06:02;7.10;;;4.30;;
77004;SDS011;67261;53.132;18.006;2023-07-20T01:14:08;7.30;;;4.30;;
77004;SDS011;67261;53.132;18.006;2023-07-20T01:16:38;6.80;;;4.10;;
77004;SDS011;67261;53.132;18.006;2023-07-20T01:19:13;7.60;;;4.40;;
77004;SDS011;67261;53.132;18.006;2023-07-20T01:33:18;7.60;;;4.40;;
77004;SDS011;67261;53.132;18.006;2023-07-20T01:35:50;7.80;;;4.60;;
77004;SDS011;67261;53.132;18.006;2023-07-20T01:38:21;8.00;;;4.30;;
77004;SDS011;67261;53.132;18.006;2023-07-20T01:40:50;7.20;;;4.60;;
77004;SDS011;67261;53.132;18.006;2023-07-20T01:43:19;6.30;;;4.10;;
77004;SDS011;67261;53.132;18.006;2023-07-20T01:45:48;7.10;;;4.30;;
77004;SDS011;67261;53.132;18.006;2023-07-20T01:48:16;5.90;;;4.20;;
77004;SDS011;67261;53.132;18.006;2023-07-20T01:50:43;7.40;;;4.90;;
77004;SDS011;67261;53.132;18.006;2023-07-20T01:53:11;8.00;;;4.80;;
77004;SDS011;67261;53.132;18.006;2023-07-20T01:55:39;6.70;;;3.90;;
77004;SDS011;67261;53.132;18.006;2023-07-20T01:58:06;7.10;;;4.30;;
77004;SDS011;67261;53.132;18.006;2023-07-20T02:00:34;9.00;;;4.60;;
77004;SDS011;67261;53.132;18.006;2023-07-20T02:03:04;6.80;;;3.90;;
77004;SDS011;67261;53.132;18.006;2023-07-20T02:05:35;5.90;;;4.00;;
77004;SDS011;67261;53.132;18.006;2023-07-20T02:08:02;7.80;;;4.90;;
77004;SDS011;67261;53.132;18.006;2023-07-20T02:10:29;5.90;;;4.20;;
77004;SDS011;67261;53.132;18.006;2023-07-20T02:13:01;6.00;;;3.80;;
77004;SDS011;67261;53.132;18.006;2023-07-20T02:15:28;7.60;;;4.40;;
77004;SDS011;67261;53.132;18.006;2023-07-20T02:17:57;6.10;;;3.80;;
77004;SDS011;67261;53.132;18.006;2023-07-20T02:20:25;6.30;;;4.10;;
77004;SDS011;67261;53.132;18.006;2023-07-20T02:22:55;7.10;;;4.20;;
77004;SDS011;67261;53.132;18.006;2023-07-20T02:25:23;6.20;;;3.80;;
77004;SDS011;67261;53.132;18.006;2023-07-20T02:27:50;6.40;;;3.90;;
77004;SDS011;67261;53.132;18.006;2023-07-20T02:30:21;5.10;;;3.60;;
77004;SDS011;67261;53.132;18.006;2023-07-20T02:32:49;5.90;;;3.30;;
77004;SDS011;67261;53.132;18.006;2023-07-20T02:35:16;5.20;;;3.60;;
77004;SDS011;67261;53.132;18.006;2023-07-20T02:37:45;7.30;;;4.00;;
77004;SDS011;67261;53.132;18.006;2023-07-20T02:40:14;7.30;;;3.80;;
77004;SDS011;67261;53.132;18.006;2023-07-20T02:42:41;6.10;;;4.30;;
77004;SDS011;67261;53.132;18.006;2023-07-20T02:45:08;5.50;;;4.00;;
77004;SDS011;67261;53.132;18.006;2023-07-20T02:47:36;5.40;;;3.60;;
77004;SDS011;67261;53.132;18.006;2023-07-20T02:50:05;7.00;;;4.40;;
77004;SDS011;67261;53.132;18.006;2023-07-20T02:52:35;7.30;;;4.90;;
77004;SDS011;67261;53.132;18.006;2023-07-20T02:55:03;6.80;;;3.90;;
77004;SDS011;67261;53.132;18.006;2023-07-20T02:57:33;7.10;;;4.50;;
77004;SDS011;67261;53.132;18.006;2023-07-20T03:02:31;6.30;;;4.30;;
77004;SDS011;67261;53.132;18.006;2023-07-20T03:05:02;8.00;;;5.20;;
77004;SDS011;67261;53.132;18.006;2023-07-20T03:07:33;6.70;;;4.70;;
77004;SDS011;67261;53.132;18.006;2023-07-20T03:10:02;7.90;;;5.00;;
77004;SDS011;67261;53.132;18.006;2023-07-20T03:12:31;7.40;;;4.80;;
77004;SDS011;67261;53.132;18.006;2023-07-20T03:15:04;7.20;;;4.40;;
77004;SDS011;67261;53.132;18.006;2023-07-20T03:17:32;7.40;;;4.30;;
77004;SDS011;67261;53.132;18.006;2023-07-20T03:19:59;6.80;;;4.20;;
77004;SDS011;67261;53.132;18.006;2023-07-20T03:22:29;5.90;;;3.60;;
77004;SDS011;67261;53.132;18.006;2023-07-20T03:24:57;7.10;;;4.20;;
77004;SDS011;67261;53.132;18.006;2023-07-20T03:29:52;6.30;;;3.80;;
77004;SDS011;67261;53.132;18.006;2023-07-20T03:32:19;6.30;;;3.60;;
77004;SDS011;67261;53.132;18.006;2023-07-20T03:34:46;5.80;;;3.20;;
77004;SDS011;67261;53.132;18.006;2023-07-20T03:37:14;6.10;;;3.30;;
77004;SDS011;67261;53.132;18.006;2023-07-20T03:39:43;4.60;;;3.00;;
77004;SDS011;67261;53.132;18.006;2023-07-20T03:42:15;5.40;;;3.20;;
77004;SDS011;67261;53.132;18.006;2023-07-20T03:44:44;7.20;;;3.10;;
77004;SDS011;67261;53.132;18.006;2023-07-20T03:47:13;7.50;;;3.20;;
77004;SDS011;67261;53.132;18.006;2023-07-20T03:49:41;5.40;;;3.00;;
77004;SDS011;67261;53.132;18.006;2023-07-20T03:52:10;5.30;;;3.50;;
77004;SDS011;67261;53.132;18.006;2023-07-20T03:54:38;4.70;;;3.20;;
77004;SDS011;67261;53.132;18.006;2023-07-20T03:57:07;5.60;;;3.10;;
77004;SDS011;67261;53.132;18.006;2023-07-20T03:59:39;7.10;;;3.00;;
77004;SDS011;67261;53.132;18.006;2023-07-20T04:02:11;5.30;;;3.40;;
77004;SDS011;67261;53.132;18.006;2023-07-20T04:04:42;7.10;;;3.70;;
77004;SDS011;67261;53.132;18.006;2023-07-20T04:07:10;5.90;;;3.40;;
77004;SDS011;67261;53.132;18.006;2023-07-20T04:09:39;5.60;;;3.30;;
77004;SDS011;67261;53.132;18.006;2023-07-20T04:12:09;7.50;;;3.80;;
77004;SDS011;67261;53.132;18.006;2023-07-20T04:14:37;5.00;;;3.40;;
77004;SDS011;67261;53.132;18.006;2023-07-20T04:17:10;5.90;;;3.40;;
77004;SDS011;67261;53.132;18.006;2023-07-20T04:19:40;7.00;;;3.10;;
77004;SDS011;67261;53.132;18.006;2023-07-20T04:22:10;5.10;;;3.40;;
77004;SDS011;67261;53.132;18.006;2023-07-20T04:24:41;6.00;;;3.60;;
77004;SDS011;67261;53.132;18.006;2023-07-20T04:27:16;7.40;;;3.70;;
77004;SDS011;67261;53.132;18.006;2023-07-20T04:29:46;6.10;;;3.10;;
77004;SDS011;67261;53.132;18.006;2023-07-20T04:32:14;6.00;;;3.10;;
77004;SDS011;67261;53.132;18.006;2023-07-20T04:34:45;7.30;;;3.00;;
77004;SDS011;67261;53.132;18.006;2023-07-20T04:37:12;6.30;;;3.30;;
77004;SDS011;67261;53.132;18.006;2023-07-20T04:39:39;5.80;;;3.20;;
77004;SDS011;67261;53.132;18.006;2023-07-20T04:42:12;5.30;;;3.70;;
77004;SDS011;67261;53.132;18.006;2023-07-20T04:44:40;5.40;;;2.90;;
77004;SDS011;67261;53.132;18.006;2023-07-20T04:47:08;7.00;;;3.40;;
77004;SDS011;67261;53.132;18.006;2023-07-20T04:49:38;5.00;;;2.60;;
77004;SDS011;67261;53.132;18.006;2023-07-20T04:52:06;5.50;;;2.70;;
77004;SDS011;67261;53.132;18.006;2023-07-20T04:54:33;4.90;;;2.90;;
77004;SDS011;67261;53.132;18.006;2023-07-20T04:57:01;4.80;;;2.40;;
77004;SDS011;67261;53.132;18.006;2023-07-20T04:59:29;5.30;;;2.80;;
77004;SDS011;67261;53.132;18.006;2023-07-20T05:01:57;5.90;;;2.70;;
77004;SDS011;67261;53.132;18.006;2023-07-20T05:04:26;4.70;;;2.60;;
77004;SDS011;67261;53.132;18.006;2023-07-20T05:06:53;5.20;;;3.20;;
77004;SDS011;67261;53.132;18.006;2023-07-20T05:09:22;4.70;;;2.20;;
77004;SDS011;67261;53.132;18.006;2023-07-20T05:11:50;5.60;;;2.30;;
77004;SDS011;67261;53.132;18.006;2023-07-20T05:14:17;4.50;;;2.40;;
77004;SDS011;67261;53.132;18.006;2023-07-20T05:16:46;6.40;;;2.50;;
77004;SDS011;67261;53.132;18.006;2023-07-20T05:19:15;5.20;;;2.30;;
77004;SDS011;67261;53.132;18.006;2023-07-20T05:21:42;3.90;;;2.10;;
77004;SDS011;67261;53.132;18.006;2023-07-20T05:24:11;4.20;;;2.30;;
77004;SDS011;67261;53.132;18.006;2023-07-20T05:26:38;4.70;;;2.10;;
77004;SDS011;67261;53.132;18.006;2023-07-20T05:29:07;4.60;;;2.10;;
77004;SDS011;67261;53.132;18.006;2023-07-20T05:31:34;6.00;;;2.30;;
77004;SDS011;67261;53.132;18.006;2023-07-20T05:34:02;4.70;;;2.00;;
77004;SDS011;67261;53.132;18.006;2023-07-20T05:36:30;6.40;;;2.60;;
77004;SDS011;67261;53.132;18.006;2023-07-20T05:38:58;4.40;;;2.00;;
77004;SDS011;67261;53.132;18.006;2023-07-20T05:41:35;4.50;;;2.30;;
77004;SDS011;67261;53.132;18.006;2023-07-20T05:44:02;3.50;;;1.70;;
77004;SDS011;67261;53.132;18.006;2023-07-20T05:46:32;4.40;;;1.60;;
77004;SDS011;67261;53.132;18.006;2023-07-20T05:49:00;4.80;;;2.00;;
77004;SDS011;67261;53.132;18.006;2023-07-20T05:51:28;4.00;;;1.90;;
77004;SDS011;67261;53.132;18.006;2023-07-20T05:53:56;4.40;;;1.90;;
77004;SDS011;67261;53.132;18.006;2023-07-20T05:56:24;5.80;;;2.50;;
77004;SDS011;67261;53.132;18.006;2023-07-20T05:58:52;5.10;;;2.30;;
77004;SDS011;67261;53.132;18.006;2023-07-20T06:01:20;3.90;;;2.00;;
77004;SDS011;67261;53.132;18.006;2023-07-20T06:03:55;3.60;;;2.00;;
77004;SDS011;67261;53.132;18.006;2023-07-20T06:06:25;5.40;;;1.90;;
77004;SDS011;67261;53.132;18.006;2023-07-20T06:08:52;4.40;;;1.70;;
77004;SDS011;67261;53.132;18.006;2023-07-20T06:11:20;3.40;;;1.50;;
77004;SDS011;67261;53.132;18.006;2023-07-20T06:13:48;3.50;;;1.30;;
77004;SDS011;67261;53.132;18.006;2023-07-20T06:16:15;4.10;;;1.40;;
77004;SDS011;67261;53.132;18.006;2023-07-20T06:18:44;3.40;;;1.30;;
77004;SDS011;67261;53.132;18.006;2023-07-20T06:21:12;4.10;;;1.40;;
77004;SDS011;67261;53.132;18.006;2023-07-20T06:23:40;3.10;;;1.50;;
77004;SDS011;67261;53.132;18.006;2023-07-20T06:26:08;4.40;;;1.60;;
77004;SDS011;67261;53.132;18.006;2023-07-20T06:28:36;5.00;;;1.70;;
77004;SDS011;67261;53.132;18.006;2023-07-20T06:31:10;4.10;;;1.90;;
77004;SDS011;67261;53.132;18.006;2023-07-20T06:33:39;3.60;;;1.50;;
77004;SDS011;67261;53.132;18.006;2023-07-20T06:36:08;4.90;;;1.70;;
77004;SDS011;67261;53.132;18.006;2023-07-20T06:38:37;3.30;;;1.40;;
77004;SDS011;67261;53.132;18.006;2023-07-20T06:41:06;4.20;;;1.50;;
77004;SDS011;67261;53.132;18.006;2023-07-20T06:43:33;4.10;;;1.30;;
77004;SDS011;67261;53.132;18.006;2023-07-20T06:46:00;2.80;;;1.30;;
77004;SDS011;67261;53.132;18.006;2023-07-20T06:48:28;3.20;;;1.30;;
77004;SDS011;67261;53.132;18.006;2023-07-20T06:50:55;3.90;;;1.40;;
77004;SDS011;67261;53.132;18.006;2023-07-20T06:53:22;4.50;;;1.40;;
77004;SDS011;67261;53.132;18.006;2023-07-20T06:55:50;4.80;;;1.40;;
77004;SDS011;67261;53.132;18.006;2023-07-20T06:58:17;4.10;;;1.60;;
77004;SDS011;67261;53.132;18.006;2023-07-20T07:00:46;3.70;;;1.40;;
77004;SDS011;67261;53.132;18.006;2023-07-20T07:03:14;5.10;;;1.70;;
77004;SDS011;67261;53.132;18.006;2023-07-20T07:05:43;5.60;;;1.50;;
77004;SDS011;67261;53.132;18.006;2023-07-20T07:08:12;3.80;;;1.40;;
77004;SDS011;67261;53.132;18.006;2023-07-20T07:10:41;3.10;;;1.20;;
77004;SDS011;67261;53.132;18.006;2023-07-20T07:13:10;5.00;;;1.20;;
77004;SDS011;67261;53.132;18.006;2023-07-20T07:15:37;2.90;;;1.20;;
77004;SDS011;67261;53.132;18.006;2023-07-20T07:18:05;3.50;;;1.10;;
77004;SDS011;67261;53.132;18.006;2023-07-20T07:20:32;3.90;;;1.30;;
77004;SDS011;67261;53.132;18.006;2023-07-20T07:23:00;3.40;;;1.20;;
77004;SDS011;67261;53.132;18.006;2023-07-20T07:25:29;5.40;;;1.40;;
77004;SDS011;67261;53.132;18.006;2023-07-20T07:27:58;3.90;;;1.10;;
77004;SDS011;67261;53.132;18.006;2023-07-20T07:30:28;2.80;;;1.20;;
77004;SDS011;67261;53.132;18.006;2023-07-20T07:32:58;5.10;;;1.40;;
77004;SDS011;67261;53.132;18.006;2023-07-20T07:35:26;3.10;;;1.30;;
77004;SDS011;67261;53.132;18.006;2023-07-20T07:37:54;4.40;;;1.10;;
77004;SDS011;67261;53.132;18.006;2023-07-20T07:40:22;2.70;;;1.10;;
77004;SDS011;67261;53.132;18.006;2023-07-20T07:42:49;5.10;;;1.40;;
77004;SDS011;67261;53.132;18.006;2023-07-20T07:45:22;2.60;;;0.90;;
77004;SDS011;67261;53.132;18.006;2023-07-20T07:47:59;3.20;;;1.20;;
77004;SDS011;67261;53.132;18.006;2023-07-20T07:50:49;3.50;;;1.00;;
77004;SDS011;67261;53.132;18.006;2023-07-20T07:53:17;2.80;;;0.90;;
77004;SDS011;67261;53.132;18.006;2023-07-20T07:55:45;2.40;;;0.90;;
77004;SDS011;67261;53.132;18.006;2023-07-20T07:58:39;3.70;;;1.20;;
77004;SDS011;67261;53.132;18.006;2023-07-20T08:01:13;4.00;;;1.10;;
77004;SDS011;67261;53.132;18.006;2023-07-20T08:03:48;2.80;;;1.00;;
77004;SDS011;67261;53.132;18.006;2023-07-20T08:06:15;2.70;;;0.70;;
77004;SDS011;67261;53.132;18.006;2023-07-20T08:08:45;3.40;;;0.80;;
77004;SDS011;67261;53.132;18.006;2023-07-20T08:11:12;2.90;;;1.10;;
77004;SDS011;67261;53.132;18.006;2023-07-20T08:13:39;2.50;;;0.90;;
77004;SDS011;67261;53.132;18.006;2023-07-20T08:16:08;2.80;;;0.80;;
77004;SDS011;67261;53.132;18.006;2023-07-20T08:18:35;3.20;;;1.20;;
77004;SDS011;67261;53.132;18.006;2023-07-20T08:21:04;2.30;;;0.80;;
77004;SDS011;67261;53.132;18.006;2023-07-20T08:23:31;2.30;;;0.90;;
77004;SDS011;67261;53.132;18.006;2023-07-20T08:25:58;3.30;;;1.00;;
77004;SDS011;67261;53.132;18.006;2023-07-20T08:28:26;3.30;;;1.10;;
77004;SDS011;67261;53.132;18.006;2023-07-20T08:30:53;2.70;;;1.20;;
77004;SDS011;67261;53.132;18.006;2023-07-20T08:33:20;2.40;;;1.10;;
77004;SDS011;67261;53.132;18.006;2023-07-20T08:35:48;3.80;;;1.20;;
77004;SDS011;67261;53.132;18.006;2023-07-20T08:38:19;3.30;;;1.20;;
77004;SDS011;67261;53.132;18.006;2023-07-20T08:40:46;3.10;;;1.10;;
77004;SDS011;67261;53.132;18.006;2023-07-20T08:43:14;3.40;;;1.00;;
77004;SDS011;67261;53.132;18.006;2023-07-20T08:45:45;2.60;;;0.90;;
77004;SDS011;67261;53.132;18.006;2023-07-20T08:48:15;2.80;;;1.00;;
77004;SDS011;67261;53.132;18.006;2023-07-20T08:50:44;3.00;;;1.20;;
77004;SDS011;67261;53.132;18.006;2023-07-20T08:53:14;2.80;;;0.90;;
77004;SDS011;67261;53.132;18.006;2023-07-20T08:55:42;2.90;;;1.00;;
77004;SDS011;67261;53.132;18.006;2023-07-20T08:58:12;3.40;;;1.20;;
77004;SDS011;67261;53.132;18.006;2023-07-20T09:00:41;2.30;;;0.80;;
77004;SDS011;67261;53.132;18.006;2023-07-20T09:03:09;3.50;;;1.00;;
77004;SDS011;67261;53.132;18.006;2023-07-20T09:05:39;2.70;;;1.00;;
77004;SDS011;67261;53.132;18.006;2023-07-20T09:08:08;3.60;;;1.00;;
77004;SDS011;67261;53.132;18.006;2023-07-20T09:10:36;3.30;;;1.10;;
77004;SDS011;67261;53.132;18.006;2023-07-20T09:13:05;3.80;;;1.50;;
77004;SDS011;67261;53.132;18.006;2023-07-20T09:15:32;2.80;;;1.00;;
77004;SDS011;67261;53.132;18.006;2023-07-20T09:18:01;2.90;;;1.10;;
77004;SDS011;67261;53.132;18.006;2023-07-20T09:20:31;2.50;;;0.80;;
77004;SDS011;67261;53.132;18.006;2023-07-20T09:23:03;2.50;;;0.80;;
77004;SDS011;67261;53.132;18.006;2023-07-20T09:25:31;2.70;;;0.70;;
77004;SDS011;67261;53.132;18.006;2023-07-20T09:28:01;3.30;;;0.90;;
77004;SDS011;67261;53.132;18.006;2023-07-20T09:30:31;3.20;;;0.90;;
77004;SDS011;67261;53.132;18.006;2023-07-20T09:32:58;2.10;;;0.80;;
77004;SDS011;67261;53.132;18.006;2023-07-20T09:35:27;2.30;;;0.70;;
77004;SDS011;67261;53.132;18.006;2023-07-20T09:37:58;2.10;;;0.80;;
77004;SDS011;67261;53.132;18.006;2023-07-20T09:40:27;2.30;;;1.20;;
77004;SDS011;67261;53.132;18.006;2023-07-20T09:42:55;3.40;;;0.70;;
77004;SDS011;67261;53.132;18.006;2023-07-20T09:45:41;3.70;;;0.80;;
77004;SDS011;67261;53.132;18.006;2023-07-20T09:48:09;1.90;;;0.70;;
77004;SDS011;67261;53.132;18.006;2023-07-20T09:50:41;3.80;;;0.90;;
77004;SDS011;67261;53.132;18.006;2023-07-20T09:53:13;2.80;;;1.00;;
77004;SDS011;67261;53.132;18.006;2023-07-20T09:55:41;2.20;;;1.00;;
77004;SDS011;67261;53.132;18.006;2023-07-20T09:58:13;2.20;;;0.80;;
77004;SDS011;67261;53.132;18.006;2023-07-20T10:00:43;3.10;;;0.90;;
77004;SDS011;67261;53.132;18.006;2023-07-20T10:03:14;4.00;;;1.10;;
77004;SDS011;67261;53.132;18.006;2023-07-20T10:05:48;2.90;;;0.80;;
77004;SDS011;67261;53.132;18.006;2023-07-20T10:08:24;2.30;;;1.20;;
77004;SDS011;67261;53.132;18.006;2023-07-20T10:10:53;2.60;;;0.90;;
77004;SDS011;67261;53.132;18.006;2023-07-20T10:13:29;1.90;;;0.50;;
77004;SDS011;67261;53.132;18.006;2023-07-20T10:16:01;2.50;;;0.70;;
77004;SDS011;67261;53.132;18.006;2023-07-20T10:21:20;2.60;;;0.80;;
77004;SDS011;67261;53.132;18.006;2023-07-20T10:23:51;2.40;;;0.70;;
77004;SDS011;67261;53.132;18.006;2023-07-20T10:26:18;2.70;;;0.90;;
77004;SDS011;67261;53.132;18.006;2023-07-20T10:28:45;2.50;;;0.80;;
77004;SDS011;67261;53.132;18.006;2023-07-20T10:31:15;3.10;;;0.80;;
77004;SDS011;67261;53.132;18.006;2023-07-20T10:33:45;2.70;;;0.90;;
77004;SDS011;67261;53.132;18.006;2023-07-20T10:36:12;1.70;;;0.70;;
77004;SDS011;67261;53.132;18.006;2023-07-20T10:41:40;2.20;;;0.80;;
77004;SDS011;67261;53.132;18.006;2023-07-20T10:44:08;2.40;;;0.90;;
77004;SDS011;67261;53.132;18.006;2023-07-20T10:49:07;2.30;;;0.70;;
77004;SDS011;67261;53.132;18.006;2023-07-20T10:51:39;2.90;;;1.00;;
77004;SDS011;67261;53.132;18.006;2023-07-20T10:54:33;2.10;;;0.80;;
77004;SDS011;67261;53.132;18.006;2023-07-20T10:59:53;1.90;;;0.80;;
77004;SDS011;67261;53.132;18.006;2023-07-20T11:02:42;3.00;;;0.80;;
77004;SDS011;67261;53.132;18.006;2023-07-20T11:05:32;4.00;;;0.90;;
77004;SDS011;67261;53.132;18.006;2023-07-20T11:08:14;3.10;;;1.30;;
77004;SDS011;67261;53.132;18.006;2023-07-20T11:11:24;2.90;;;0.70;;
77004;SDS011;67261;53.132;18.006;2023-07-20T11:13:57;2.00;;;0.80;;
77004;SDS011;67261;53.132;18.006;2023-07-20T11:16:39;3.20;;;1.00;;
77004;SDS011;67261;53.132;18.006;2023-07-20T11:19:13;2.90;;;0.90;;
77004;SDS011;67261;53.132;18.006;2023-07-20T11:21:45;2.80;;;1.00;;
77004;SDS011;67261;53.132;18.006;2023-07-20T11:24:14;2.60;;;1.00;;
77004;SDS011;67261;53.132;18.006;2023-07-20T11:26:44;2.20;;;0.90;;
77004;SDS011;67261;53.132;18.006;2023-07-20T11:29:16;3.80;;;0.90;;
77004;SDS011;67261;53.132;18.006;2023-07-20T11:31:45;3.10;;;0.70;;
77004;SDS011;67261;53.132;18.006;2023-07-20T11:34:15;2.90;;;0.90;;
77004;SDS011;67261;53.132;18.006;2023-07-20T11:36:45;2.80;;;0.90;;
77004;SDS011;67261;53.132;18.006;2023-07-20T11:41:48;2.50;;;1.00;;
77004;SDS011;67261;53.132;18.006;2023-07-20T11:44:20;2.50;;;0.80;;
77004;SDS011;67261;53.132;18.006;2023-07-20T11:47:02;2.80;;;0.90;;
77004;SDS011;67261;53.132;18.006;2023-07-20T11:49:42;8.70;;;1.60;;
77004;SDS011;67261;53.132;18.006;2023-07-20T11:52:11;4.30;;;1.40;;
77004;SDS011;67261;53.132;18.006;2023-07-20T11:54:42;4.20;;;1.40;;
77004;SDS011;67261;53.132;18.006;2023-07-20T11:57:20;3.50;;;1.10;;
77004;SDS011;67261;53.132;18.006;2023-07-20T11:59:55;2.90;;;0.90;;
77004;SDS011;67261;53.132;18.006;2023-07-20T12:02:27;3.40;;;0.90;;
77004;SDS011;67261;53.132;18.006;2023-07-20T12:04:56;6.90;;;1.60;;
77004;SDS011;67261;53.132;18.006;2023-07-20T12:07:28;4.40;;;1.20;;
77004;SDS011;67261;53.132;18.006;2023-07-20T12:10:05;4.70;;;1.40;;
77004;SDS011;67261;53.132;18.006;2023-07-20T12:12:40;3.30;;;0.90;;
77004;SDS011;67261;53.132;18.006;2023-07-20T12:17:45;2.80;;;1.00;;
77004;SDS011;67261;53.132;18.006;2023-07-20T12:20:13;3.90;;;0.90;;
77004;SDS011;67261;53.132;18.006;2023-07-20T12:22:56;4.30;;;1.20;;
77004;SDS011;67261;53.132;18.006;2023-07-20T12:25:45;3.40;;;1.50;;
77004;SDS011;67261;53.132;18.006;2023-07-20T12:30:44;3.70;;;1.10;;
77004;SDS011;67261;53.132;18.006;2023-07-20T12:33:32;3.30;;;1.20;;
77004;SDS011;67261;53.132;18.006;2023-07-20T12:35:59;3.80;;;1.20;;
77004;SDS011;67261;53.132;18.006;2023-07-20T12:38:28;7.20;;;1.60;;
77004;SDS011;67261;53.132;18.006;2023-07-20T12:40:57;3.10;;;1.10;;
77004;SDS011;67261;53.132;18.006;2023-07-20T12:43:26;3.30;;;1.20;;
77004;SDS011;67261;53.132;18.006;2023-07-20T12:45:54;4.60;;;1.10;;
77004;SDS011;67261;53.132;18.006;2023-07-20T12:48:22;3.80;;;1.20;;
77004;SDS011;67261;53.132;18.006;2023-07-20T12:50:49;4.70;;;1.20;;
77004;SDS011;67261;53.132;18.006;2023-07-20T12:53:16;4.60;;;1.40;;
77004;SDS011;67261;53.132;18.006;2023-07-20T12:55:43;3.00;;;1.20;;
77004;SDS011;67261;53.132;18.006;2023-07-20T12:58:11;3.60;;;1.00;;
77004;SDS011;67261;53.132;18.006;2023-07-20T13:00:38;3.50;;;1.10;;
77004;SDS011;67261;53.132;18.006;2023-07-20T13:03:06;2.70;;;1.00;;
77004;SDS011;67261;53.132;18.006;2023-07-20T13:05:35;2.90;;;1.00;;
77004;SDS011;67261;53.132;18.006;2023-07-20T13:08:02;2.70;;;0.80;;
77004;SDS011;67261;53.132;18.006;2023-07-20T13:10:32;3.20;;;1.10;;
77004;SDS011;67261;53.132;18.006;2023-07-20T13:12:59;3.20;;;1.10;;
77004;SDS011;67261;53.132;18.006;2023-07-20T13:15:31;2.70;;;0.80;;
77004;SDS011;67261;53.132;18.006;2023-07-20T13:17:59;2.80;;;1.10;;
77004;SDS011;67261;53.132;18.006;2023-07-20T13:20:26;3.50;;;1.00;;
77004;SDS011;67261;53.132;18.006;2023-07-20T13:22:54;2.50;;;0.90;;
77004;SDS011;67261;53.132;18.006;2023-07-20T13:25:22;2.50;;;1.10;;
77004;SDS011;67261;53.132;18.006;2023-07-20T13:27:49;2.30;;;0.90;;
77004;SDS011;67261;53.132;18.006;2023-07-20T13:30:16;2.70;;;0.70;;
77004;SDS011;67261;53.132;18.006;2023-07-20T13:32:44;2.80;;;0.90;;
77004;SDS011;67261;53.132;18.006;2023-07-20T13:35:12;2.90;;;0.90;;
77004;SDS011;67261;53.132;18.006;2023-07-20T13:37:41;2.30;;;0.80;;
77004;SDS011;67261;53.132;18.006;2023-07-20T13:40:08;2.90;;;0.90;;
77004;SDS011;67261;53.132;18.006;2023-07-20T13:42:40;2.20;;;0.90;;
77004;SDS011;67261;53.132;18.006;2023-07-20T13:45:07;1.80;;;1.00;;
77004;SDS011;67261;53.132;18.006;2023-07-20T13:47:35;1.80;;;0.70;;
77004;SDS011;67261;53.132;18.006;2023-07-20T13:50:02;2.10;;;0.80;;
77004;SDS011;67261;53.132;18.006;2023-07-20T13:52:31;2.40;;;0.80;;
77004;SDS011;67261;53.132;18.006;2023-07-20T13:54:59;1.70;;;0.80;;
77004;SDS011;67261;53.132;18.006;2023-07-20T13:57:26;2.30;;;0.90;;
77004;SDS011;67261;53.132;18.006;2023-07-20T13:59:54;2.30;;;0.80;;
77004;SDS011;67261;53.132;18.006;2023-07-20T14:02:22;2.30;;;0.80;;
77004;SDS011;67261;53.132;18.006;2023-07-20T14:04:49;1.80;;;0.60;;
77004;SDS011;67261;53.132;18.006;2023-07-20T14:07:18;1.40;;;0.60;;
77004;SDS011;67261;53.132;18.006;2023-07-20T14:09:45;1.50;;;0.70;;
77004;SDS011;67261;53.132;18.006;2023-07-20T14:12:14;1.90;;;0.80;;
77004;SDS011;67261;53.132;18.006;2023-07-20T14:14:41;3.30;;;1.30;;
77004;SDS011;67261;53.132;18.006;2023-07-20T14:17:09;4.50;;;1.10;;
77004;SDS011;67261;53.132;18.006;2023-07-20T14:19:37;3.10;;;0.90;;
77004;SDS011;67261;53.132;18.006;2023-07-20T14:22:05;1.70;;;0.90;;
77004;SDS011;67261;53.132;18.006;2023-07-20T14:24:33;2.40;;;0.90;;
77004;SDS011;67261;53.132;18.006;2023-07-20T14:27:01;3.00;;;1.10;;
77004;SDS011;67261;53.132;18.006;2023-07-20T14:29:28;3.90;;;1.10;;
77004;SDS011;67261;53.132;18.006;2023-07-20T14:31:58;2.50;;;0.80;;
77004;SDS011;67261;53.132;18.006;2023-07-20T14:34:25;2.20;;;1.00;;
77004;SDS011;67261;53.132;18.006;2023-07-20T14:36:53;2.30;;;0.90;;
77004;SDS011;67261;53.132;18.006;2023-07-20T14:39:22;1.80;;;0.60;;
77004;SDS011;67261;53.132;18.006;2023-07-20T14:41:51;2.70;;;0.70;;
77004;SDS011;67261;53.132;18.006;2023-07-20T14:44:21;2.40;;;0.70;;
77004;SDS011;67261;53.132;18.006;2023-07-20T14:46:49;3.50;;;1.10;;
77004;SDS011;67261;53.132;18.006;2023-07-20T14:49:16;1.70;;;0.70;;
77004;SDS011;67261;53.132;18.006;2023-07-20T14:51:45;2.30;;;1.00;;
77004;SDS011;67261;53.132;18.006;2023-07-20T14:54:13;2.80;;;0.90;;
77004;SDS011;67261;53.132;18.006;2023-07-20T14:56:48;2.30;;;0.70;;
77004;SDS011;67261;53.132;18.006;2023-07-20T14:59:18;1.50;;;0.70;;
77004;SDS011;67261;53.132;18.006;2023-07-20T15:01:46;2.60;;;0.70;;
77004;SDS011;67261;53.132;18.006;2023-07-20T15:04:14;2.10;;;0.80;;
77004;SDS011;67261;53.132;18.006;2023-07-20T15:06:41;2.80;;;0.90;;
77004;SDS011;67261;53.132;18.006;2023-07-20T15:09:09;2.40;;;1.00;;
77004;SDS011;67261;53.132;18.006;2023-07-20T15:11:36;2.40;;;1.00;;
77004;SDS011;67261;53.132;18.006;2023-07-20T15:14:04;2.50;;;0.80;;
77004;SDS011;67261;53.132;18.006;2023-07-20T15:16:31;1.90;;;0.70;;
77004;SDS011;67261;53.132;18.006;2023-07-20T15:18:58;2.50;;;0.90;;
77004;SDS011;67261;53.132;18.006;2023-07-20T15:21:26;2.60;;;0.90;;
77004;SDS011;67261;53.132;18.006;2023-07-20T15:23:57;2.70;;;0.90;;
77004;SDS011;67261;53.132;18.006;2023-07-20T15:26:25;2.20;;;1.00;;
77004;SDS011;67261;53.132;18.006;2023-07-20T15:28:52;2.70;;;1.10;;
77004;SDS011;67261;53.132;18.006;2023-07-20T15:31:19;3.50;;;1.50;;